Time;durP1;ratioP1;P1;durP2;ratioP2;P2;SDS_P1;SDS_P2;PMS_P1;PMS_P2;Temp;Humidity;BMP_temperature;BMP_pressure;BME280_temperature;BME280_humidity;BME280_pressure;Samples;Min_cycle;Max_cycle;Signal;HPM_P1;HPM_P2
2021/08/06 00:01:56;;;;;;;2.67;1.73;;;20.40;99.90;;;;;;5071069;28;20123;-82
2021/08/06 00:04:22;;;;;;;3.78;1.60;;;20.40;99.90;;;;;;5072630;28;20028;-82
2021/08/06 00:06:47;;;;;;;3.25;1.70;;;20.40;99.90;;;;;;5070838;28;20052;-82
2021/08/06 00:09:13;;;;;;;3.25;1.70;;;20.30;99.90;;;;;;5070334;28;20097;-81
2021/08/06 00:11:39;;;;;;;2.78;1.67;;;20.40;99.90;;;;;;5070804;28;20035;-82
2021/08/06 00:14:05;;;;;;;1.50;1.40;;;20.40;99.90;;;;;;5069571;28;20413;-82
2021/08/06 00:16:31;;;;;;;1.60;1.50;;;20.40;99.90;;;;;;5071739;28;20028;-81
2021/08/06 00:18:57;;;;;;;1.60;1.50;;;20.30;99.90;;;;;;5070654;28;20036;-82
2021/08/06 00:21:23;;;;;;;2.38;1.45;;;20.30;99.90;;;;;;5069509;28;20032;-82
2021/08/06 00:23:48;;;;;;;2.97;1.73;;;20.40;99.90;;;;;;5068274;28;20111;-82
2021/08/06 00:26:14;;;;;;;3.70;1.40;;;20.40;99.90;;;;;;5070836;28;20021;-82
2021/08/06 00:28:40;;;;;;;2.00;1.55;;;20.30;99.90;;;;;;5072029;28;20036;-82
2021/08/06 00:31:06;;;;;;;3.33;1.80;;;20.30;99.90;;;;;;5068659;28;20115;-82
2021/08/06 00:33:31;;;;;;;2.08;1.50;;;20.30;99.90;;;;;;5070230;28;20099;-82
2021/08/06 00:35:57;;;;;;;2.40;1.48;;;20.40;99.90;;;;;;5069653;28;20044;-81
2021/08/06 00:38:23;;;;;;;4.40;1.80;;;20.50;99.90;;;;;;5069936;28;20017;-82
2021/08/06 00:40:48;;;;;;;2.63;1.40;;;20.50;99.90;;;;;;5071678;28;20477;-82
2021/08/06 00:43:14;;;;;;;1.60;1.50;;;20.40;99.90;;;;;;5070533;28;20032;-82
2021/08/06 00:45:39;;;;;;;3.42;1.35;;;20.40;99.90;;;;;;5069066;28;20028;-81
2021/08/06 00:48:06;;;;;;;3.58;1.38;;;20.30;99.90;;;;;;5069890;28;20057;-82
2021/08/06 00:50:32;;;;;;;1.73;1.60;;;20.20;99.90;;;;;;5069881;28;20497;-82
2021/08/06 00:52:59;;;;;;;1.50;1.40;;;20.20;99.90;;;;;;5069572;28;20118;-81
2021/08/06 00:55:25;;;;;;;2.50;1.80;;;20.10;99.90;;;;;;5071674;28;20034;-82
2021/08/06 00:57:50;;;;;;;2.28;1.40;;;20.20;99.90;;;;;;5068930;28;20025;-82
2021/08/06 01:00:16;;;;;;;1.40;1.30;;;20.20;99.90;;;;;;5069711;28;20036;-82
2021/08/06 01:02:46;;;;;;;3.38;1.45;;;20.20;99.90;;;;;;5053805;28;20082;-81
2021/08/06 01:05:19;;;;;;;3.80;1.42;;;20.20;99.90;;;;;;5054204;28;20020;-82
2021/08/06 01:08:09;;;;;;;3.38;1.70;;;20.20;99.90;;;;;;5067533;28;20028;-82
2021/08/06 01:11:02;;;;;;;3.05;1.48;;;20.20;99.90;;;;;;5070127;28;20032;-81
2021/08/06 01:13:41;;;;;;;2.63;1.60;;;20.30;99.90;;;;;;5066924;28;20048;-82
2021/08/06 01:16:09;;;;;;;1.50;1.40;;;20.40;99.90;;;;;;5069994;28;20039;-82
2021/08/06 01:18:38;;;;;;;2.58;1.40;;;20.40;99.90;;;;;;5051591;28;20464;-82
2021/08/06 01:21:09;;;;;;;3.35;1.60;;;20.40;99.90;;;;;;5069649;28;20024;-81
2021/08/06 01:23:40;;;;;;;3.50;1.65;;;20.50;99.90;;;;;;5069297;28;20036;-82
2021/08/06 01:26:12;;;;;;;3.00;1.80;;;20.60;99.90;;;;;;5070048;28;20372;-82
2021/08/06 01:28:43;;;;;;;6.80;1.52;;;20.60;99.90;;;;;;5070600;28;20054;-82
2021/08/06 01:31:10;;;;;;;2.65;1.40;;;20.60;99.90;;;;;;5067918;28;20032;-82
2021/08/06 01:33:36;;;;;;;2.08;1.50;;;20.60;99.90;;;;;;5069485;28;20020;-82
2021/08/06 01:36:03;;;;;;;2.20;1.60;;;20.50;99.90;;;;;;5069858;28;20028;-82
2021/08/06 01:38:29;;;;;;;1.88;1.58;;;20.50;99.90;;;;;;5068014;28;20378;-82
2021/08/06 01:40:58;;;;;;;2.70;1.50;;;20.50;99.90;;;;;;5070255;28;20435;-81
2021/08/06 01:43:35;;;;;;;3.00;1.40;;;20.50;99.90;;;;;;5068196;28;20124;-82
2021/08/06 01:46:18;;;;;;;1.40;1.30;;;20.50;99.90;;;;;;5069829;28;20052;-82
2021/08/06 01:48:48;;;;;;;1.92;1.60;;;20.60;99.90;;;;;;5069288;28;20401;-82
2021/08/06 01:51:15;;;;;;;1.80;1.45;;;20.70;99.90;;;;;;5069328;28;20020;-82
2021/08/06 01:53:45;;;;;;;2.53;1.70;;;20.60;99.90;;;;;;5069894;28;20027;-82
2021/08/06 01:56:18;;;;;;;2.05;1.45;;;20.60;99.90;;;;;;5053477;28;20426;-82
2021/08/06 01:58:49;;;;;;;3.17;1.88;;;20.60;99.90;;;;;;5067645;28;20040;-81
2021/08/06 02:01:15;;;;;;;3.83;1.83;;;20.70;99.90;;;;;;5068781;28;20038;-81
2021/08/06 02:03:41;;;;;;;3.10;1.73;;;20.60;99.90;;;;;;5070365;28;20447;-81
2021/08/06 02:06:08;;;;;;;1.67;1.45;;;20.50;99.90;;;;;;5072979;28;20089;-81
2021/08/06 02:08:36;;;;;;;2.05;1.83;;;20.50;99.90;;;;;;5073234;28;20024;-82
2021/08/06 02:11:02;;;;;;;2.70;1.50;;;20.50;99.90;;;;;;5072830;28;20048;-82
2021/08/06 02:13:28;;;;;;;4.53;1.88;;;20.50;99.90;;;;;;5073923;28;20071;-82
2021/08/06 02:15:55;;;;;;;1.50;1.40;;;20.60;99.90;;;;;;5073048;28;20534;-82
2021/08/06 02:18:24;;;;;;;2.83;1.75;;;20.50;99.90;;;;;;5072234;28;20025;-81
2021/08/06 02:20:56;;;;;;;3.15;1.60;;;20.50;99.90;;;;;;5070960;28;20085;-81
2021/08/06 02:23:26;;;;;;;2.88;1.40;;;20.50;99.90;;;;;;5072714;28;20028;-82
2021/08/06 02:25:55;;;;;;;2.33;1.45;;;20.50;99.90;;;;;;5073583;28;20115;-82
2021/08/06 02:28:22;;;;;;;2.08;1.50;;;20.50;99.90;;;;;;5073147;28;20032;-82
2021/08/06 02:30:50;;;;;;;1.90;1.60;;;20.50;99.90;;;;;;5071998;28;20028;-82
2021/08/06 02:33:16;;;;;;;1.80;1.45;;;20.50;99.90;;;;;;5072959;28;20397;-82
2021/08/06 02:35:42;;;;;;;2.47;1.63;;;20.60;99.90;;;;;;5072564;28;20507;-81
2021/08/06 02:38:08;;;;;;;1.90;1.63;;;20.60;99.90;;;;;;5054828;28;20020;-82
2021/08/06 02:40:33;;;;;;;1.73;1.60;;;20.70;99.90;;;;;;5073283;28;20036;-82
2021/08/06 02:42:59;;;;;;;2.20;1.60;;;20.60;99.90;;;;;;5072011;28;20043;-81
2021/08/06 02:45:25;;;;;;;2.72;1.50;;;20.70;99.90;;;;;;5072770;28;20074;-82
2021/08/06 02:47:51;;;;;;;2.15;1.35;;;20.60;99.90;;;;;;5072203;28;20048;-82
2021/08/06 02:50:17;;;;;;;2.13;1.65;;;20.50;99.90;;;;;;5072017;28;20116;-81
2021/08/06 02:52:43;;;;;;;4.30;1.63;;;20.40;99.90;;;;;;5074540;28;20104;-82
2021/08/06 02:55:09;;;;;;;2.20;1.70;;;20.50;99.90;;;;;;5051975;28;20033;-82
2021/08/06 02:57:35;;;;;;;2.58;1.60;;;20.50;99.90;;;;;;5070946;28;20083;-82
2021/08/06 03:00:00;;;;;;;5.57;1.50;;;20.60;99.90;;;;;;5070406;28;20037;-82
2021/08/06 03:02:26;;;;;;;2.65;1.40;;;20.60;99.90;;;;;;5072074;28;20039;-82
2021/08/06 03:04:52;;;;;;;2.08;1.58;;;20.70;99.90;;;;;;5055001;28;20032;-82
2021/08/06 03:07:21;;;;;;;2.00;1.40;;;20.60;99.90;;;;;;5073178;28;20028;-82
2021/08/06 03:09:47;;;;;;;3.22;1.52;;;20.70;99.90;;;;;;5071960;28;20507;-81
2021/08/06 03:12:12;;;;;;;3.97;1.45;;;20.70;99.90;;;;;;5053128;28;20111;-82
2021/08/06 03:14:40;;;;;;;1.85;1.50;;;20.60;99.90;;;;;;5071906;28;20112;-82
2021/08/06 03:17:06;;;;;;;5.43;1.58;;;20.50;99.90;;;;;;5071540;28;20032;-81
2021/08/06 03:19:31;;;;;;;4.78;1.70;;;20.50;99.90;;;;;;5073501;28;20531;-82
2021/08/06 03:21:57;;;;;;;2.95;1.83;;;20.50;99.90;;;;;;5071493;28;20084;-81
2021/08/06 03:24:23;;;;;;;3.95;1.50;;;20.50;99.90;;;;;;5070502;28;20040;-82
2021/08/06 03:26:48;;;;;;;2.17;1.38;;;20.40;99.90;;;;;;5071609;28;20488;-82
2021/08/06 03:29:14;;;;;;;1.50;1.40;;;20.40;99.90;;;;;;5072044;28;20029;-82
2021/08/06 03:31:40;;;;;;;4.40;1.70;;;20.40;99.90;;;;;;5069017;28;20150;-82
2021/08/06 03:34:05;;;;;;;2.22;1.40;;;20.40;99.90;;;;;;5071175;28;20382;-82
2021/08/06 03:36:31;;;;;;;3.60;1.52;;;20.40;99.90;;;;;;5070168;28;20123;-81
2021/08/06 03:38:57;;;;;;;2.53;1.40;;;20.40;99.90;;;;;;5068950;28;20020;-82
2021/08/06 03:41:23;;;;;;;3.42;1.70;;;20.50;99.90;;;;;;5070245;28;20033;-82
2021/08/06 03:43:48;;;;;;;2.10;1.70;;;20.50;99.90;;;;;;5073031;28;20025;-82
2021/08/06 03:46:14;;;;;;;5.28;1.95;;;20.40;99.90;;;;;;5053632;28;20052;-81
2021/08/06 03:48:40;;;;;;;3.92;1.80;;;20.40;99.90;;;;;;5069987;28;20028;-82
2021/08/06 03:51:06;;;;;;;2.17;1.70;;;20.40;99.90;;;;;;5071431;28;20146;-82
2021/08/06 03:53:32;;;;;;;3.53;1.70;;;20.40;99.90;;;;;;5071422;28;20514;-81
2021/08/06 03:55:57;;;;;;;3.25;1.90;;;20.40;99.90;;;;;;5070156;28;20036;-82
2021/08/06 03:58:23;;;;;;;4.00;2.00;;;20.30;99.90;;;;;;5072755;28;20025;-82
2021/08/06 04:00:48;;;;;;;3.15;1.70;;;20.30;99.90;;;;;;5070904;28;20025;-82
2021/08/06 04:03:14;;;;;;;2.47;1.88;;;20.30;99.90;;;;;;5071202;28;20081;-81
2021/08/06 04:05:40;;;;;;;4.80;1.83;;;20.30;99.90;;;;;;5070837;28;20464;-81
2021/08/06 04:08:07;;;;;;;1.80;1.70;;;20.20;99.90;;;;;;5070667;28;20028;-81
2021/08/06 04:10:33;;;;;;;2.75;1.80;;;20.20;99.90;;;;;;5071433;28;20108;-81
2021/08/06 04:12:59;;;;;;;2.10;1.70;;;20.10;99.90;;;;;;5070931;28;20107;-82
2021/08/06 04:15:25;;;;;;;4.03;2.00;;;20.20;99.90;;;;;;5069386;28;20036;-81
2021/08/06 04:17:51;;;;;;;3.00;1.80;;;20.20;99.90;;;;;;5069012;28;20048;-81
2021/08/06 04:20:16;;;;;;;2.88;1.80;;;20.20;99.90;;;;;;5070968;28;20065;-82
2021/08/06 04:22:42;;;;;;;2.35;1.80;;;20.20;99.90;;;;;;5072171;28;20066;-82
2021/08/06 04:25:10;;;;;;;2.90;1.73;;;20.20;99.90;;;;;;5069282;28;20087;-82
2021/08/06 04:27:36;;;;;;;2.78;1.88;;;20.10;99.90;;;;;;5070205;28;20021;-82
2021/08/06 04:30:03;;;;;;;3.75;1.55;;;20.20;99.90;;;;;;5070261;28;20475;-81
2021/08/06 04:32:29;;;;;;;2.00;1.70;;;20.10;99.90;;;;;;5050523;28;20398;-82
2021/08/06 04:34:54;;;;;;;1.80;1.70;;;20.10;99.90;;;;;;5071453;28;20078;-82
2021/08/06 04:37:20;;;;;;;3.63;1.80;;;20.10;99.90;;;;;;5071229;28;20029;-81
2021/08/06 04:39:46;;;;;;;3.17;1.75;;;20.10;99.90;;;;;;5069326;28;20393;-82
2021/08/06 04:42:11;;;;;;;3.63;1.77;;;20.10;99.90;;;;;;5070077;28;20069;-81
2021/08/06 04:44:38;;;;;;;4.95;2.20;;;20.10;99.90;;;;;;5070666;28;20055;-81
2021/08/06 04:47:04;;;;;;;4.28;2.00;;;20.00;99.90;;;;;;5069727;28;20056;-82
2021/08/06 04:49:30;;;;;;;3.55;2.00;;;20.00;99.90;;;;;;5072155;28;20029;-82
2021/08/06 04:51:56;;;;;;;3.33;1.80;;;20.00;99.90;;;;;;5070066;28;20040;-82
2021/08/06 04:54:22;;;;;;;3.03;1.92;;;20.10;99.90;;;;;;5068457;28;20024;-82
2021/08/06 04:56:48;;;;;;;2.47;1.90;;;20.10;99.90;;;;;;5068829;28;20037;-81
2021/08/06 04:59:14;;;;;;;4.35;2.67;;;20.00;99.90;;;;;;5069272;28;20389;-82
2021/08/06 05:01:39;;;;;;;5.00;2.10;;;19.90;99.90;;;;;;5071266;28;20038;-81
2021/08/06 05:04:05;;;;;;;2.10;1.90;;;19.90;99.90;;;;;;5069747;28;20044;-82
2021/08/06 05:06:31;;;;;;;5.22;2.08;;;19.80;99.90;;;;;;5069951;28;20020;-82
2021/08/06 05:08:57;;;;;;;2.78;2.15;;;19.80;99.90;;;;;;5069115;28;20105;-82
2021/08/06 05:11:22;;;;;;;3.88;2.05;;;19.80;99.90;;;;;;5067630;28;20064;-81
2021/08/06 05:13:48;;;;;;;3.08;1.90;;;19.80;99.90;;;;;;5070817;28;20074;-82
2021/08/06 05:16:13;;;;;;;5.10;2.17;;;19.80;99.90;;;;;;5070518;28;20028;-81
2021/08/06 05:18:39;;;;;;;2.30;2.10;;;19.70;99.90;;;;;;5069960;28;20031;-81
2021/08/06 05:21:05;;;;;;;3.75;2.00;;;19.70;99.90;;;;;;5069491;28;20086;-81
2021/08/06 05:23:31;;;;;;;3.78;1.92;;;19.70;99.90;;;;;;5068963;28;20036;-82
2021/08/06 05:25:57;;;;;;;3.63;1.92;;;19.70;99.90;;;;;;5070526;28;20028;-81
2021/08/06 05:28:23;;;;;;;2.75;1.85;;;19.70;99.90;;;;;;5070852;28;20033;-82
2021/08/06 05:30:49;;;;;;;2.20;1.90;;;19.80;99.90;;;;;;5069655;28;20032;-82
2021/08/06 05:33:14;;;;;;;2.65;1.88;;;19.80;99.90;;;;;;5068530;28;20098;-81
2021/08/06 05:35:40;;;;;;;3.97;2.00;;;19.90;99.90;;;;;;5067982;28;20035;-81
2021/08/06 05:38:06;;;;;;;4.22;2.22;;;20.00;99.90;;;;;;5069057;28;20029;-82
2021/08/06 05:40:33;;;;;;;5.70;2.45;;;19.90;99.90;;;;;;5074672;28;20025;-82
2021/08/06 05:42:59;;;;;;;2.85;2.08;;;20.10;99.90;;;;;;5073179;28;20044;-82
2021/08/06 05:45:25;;;;;;;4.32;2.10;;;20.20;99.90;;;;;;5073485;28;20087;-82
2021/08/06 05:47:53;;;;;;;4.00;2.47;;;20.30;99.90;;;;;;5073621;28;20064;-82
2021/08/06 05:50:24;;;;;;;4.30;1.98;;;20.20;99.90;;;;;;5073777;28;20033;-81
2021/08/06 05:52:50;;;;;;;3.33;1.90;;;20.50;99.90;;;;;;5074456;28;20048;-82
2021/08/06 05:55:17;;;;;;;3.20;1.98;;;20.60;1.00;;;;;;5072418;28;20102;-82
2021/08/06 05:57:43;;;;;;;2.33;2.13;;;20.70;1.00;;;;;;5072949;28;20029;-82
2021/08/06 06:00:11;;;;;;;4.63;2.42;;;20.80;99.90;;;;;;5073486;28;20020;-81
2021/08/06 06:02:37;;;;;;;5.35;2.40;;;20.60;1.00;;;;;;5073105;28;20041;-82
2021/08/06 06:05:04;;;;;;;3.50;2.15;;;20.50;1.00;;;;;;5073439;28;20027;-81
2021/08/06 06:07:29;;;;;;;2.97;2.30;;;20.50;1.00;;;;;;5074103;28;20048;-81
2021/08/06 06:09:55;;;;;;;2.60;2.10;;;20.60;1.00;;;;;;5071865;28;20512;-81
2021/08/06 06:12:21;;;;;;;8.02;2.67;;;20.80;1.00;;;;;;5071324;28;20028;-81
2021/08/06 06:14:46;;;;;;;4.90;2.38;;;20.80;1.00;;;;;;5072100;28;20103;-81
2021/08/06 06:17:13;;;;;;;6.57;2.60;;;20.90;1.00;;;;;;5055661;28;20030;-82
2021/08/06 06:19:38;;;;;;;3.20;2.13;;;21.10;1.00;;;;;;5074732;28;20434;-81
2021/08/06 06:22:07;;;;;;;2.70;1.98;;;21.20;1.00;;;;;;5072717;28;20119;-81
2021/08/06 06:24:34;;;;;;;2.42;2.22;;;21.40;99.90;;;;;;5070502;28;20036;-81
2021/08/06 06:27:00;;;;;;;3.35;2.17;;;21.70;99.90;;;;;;5072198;28;20037;-82
2021/08/06 06:29:26;;;;;;;3.20;2.63;;;21.80;99.90;;;;;;5072752;28;20028;-81
2021/08/06 06:31:52;;;;;;;4.88;2.15;;;21.90;99.90;;;;;;5073647;28;20032;-81
2021/08/06 06:34:17;;;;;;;4.93;2.00;;;21.90;99.90;;;;;;5073396;28;20032;-81
2021/08/06 06:36:43;;;;;;;7.70;2.33;;;21.80;99.90;;;;;;5072433;28;20029;-84
2021/08/06 06:39:08;;;;;;;3.08;2.10;;;21.80;99.90;;;;;;5071838;28;20028;-84
2021/08/06 06:41:34;;;;;;;2.92;1.90;;;21.80;99.90;;;;;;5071962;28;20036;-84
2021/08/06 06:44:00;;;;;;;3.97;2.00;;;21.70;99.90;;;;;;5072419;28;20460;-83
2021/08/06 06:46:25;;;;;;;2.15;1.90;;;22.00;99.90;;;;;;5074389;28;20044;-84
2021/08/06 06:48:51;;;;;;;5.40;2.33;;;22.20;99.90;;;;;;5072306;28;20075;-84
2021/08/06 06:51:16;;;;;;;3.20;1.92;;;22.30;99.90;;;;;;5053615;28;20148;-84
2021/08/06 06:53:42;;;;;;;6.00;2.03;;;22.30;99.90;;;;;;5071855;28;20032;-84
2021/08/06 06:56:08;;;;;;;4.72;2.20;;;22.40;99.90;;;;;;5071183;28;20032;-84
2021/08/06 06:58:35;;;;;;;4.50;1.98;;;22.60;99.90;;;;;;5074140;28;20032;-84
2021/08/06 07:01:00;;;;;;;3.75;2.00;;;22.70;99.90;;;;;;5071383;28;20040;-84
2021/08/06 07:03:26;;;;;;;3.88;2.00;;;22.70;99.90;;;;;;5070913;28;20174;-84
2021/08/06 07:05:52;;;;;;;3.40;1.80;;;22.60;99.90;;;;;;5072043;28;20025;-83
2021/08/06 07:08:18;;;;;;;6.70;2.30;;;22.70;99.90;;;;;;5072213;28;20597;-83
2021/08/06 07:10:43;;;;;;;4.30;1.85;;;22.50;99.90;;;;;;5073163;28;20025;-83
2021/08/06 07:13:09;;;;;;;6.03;1.77;;;22.50;99.90;;;;;;5071720;28;20115;-82
2021/08/06 07:15:35;;;;;;;2.15;1.40;;;22.60;99.90;;;;;;5072195;28;20078;-82
2021/08/06 07:18:00;;;;;;;4.13;1.70;;;22.50;99.90;;;;;;5071778;28;20501;-82
2021/08/06 07:20:26;;;;;;;4.93;1.60;;;22.50;99.90;;;;;;5071748;28;20392;-82
2021/08/06 07:22:55;;;;;;;2.75;1.58;;;22.30;99.90;;;;;;5072059;28;20090;-83
2021/08/06 07:25:20;;;;;;;3.25;1.83;;;22.30;99.90;;;;;;5073308;28;20029;-82
2021/08/06 07:27:46;;;;;;;3.83;1.52;;;22.30;99.90;;;;;;5071933;28;20055;-82
2021/08/06 07:30:13;;;;;;;5.35;1.63;;;22.30;99.90;;;;;;5070111;28;20119;-82
2021/08/06 07:32:39;;;;;;;4.00;1.85;;;22.30;99.90;;;;;;5054904;28;20111;-82
2021/08/06 07:35:06;;;;;;;3.22;1.90;;;22.10;99.90;;;;;;5054036;28;20120;-82
2021/08/06 07:37:31;;;;;;;5.43;1.50;;;22.20;99.90;;;;;;5072401;28;20107;-82
2021/08/06 07:39:57;;;;;;;6.05;1.88;;;22.10;99.90;;;;;;5070788;28;20115;-82
2021/08/06 07:42:23;;;;;;;3.25;1.67;;;22.00;99.90;;;;;;5071547;28;20047;-82
2021/08/06 07:44:49;;;;;;;6.05;1.63;;;22.10;99.90;;;;;;5071238;28;20500;-82
2021/08/06 07:47:15;;;;;;;3.78;1.88;;;22.20;99.90;;;;;;5071575;28;20483;-82
2021/08/06 07:49:41;;;;;;;3.45;1.70;;;22.20;99.90;;;;;;5072956;28;20021;-83
2021/08/06 07:52:12;;;;;;;4.53;1.98;;;22.30;99.90;;;;;;5070396;28;20020;-82
2021/08/06 07:54:39;;;;;;;3.22;1.65;;;22.40;99.90;;;;;;5070620;28;20032;-82
2021/08/06 07:57:05;;;;;;;4.70;1.90;;;22.50;99.90;;;;;;5069809;28;20103;-82
2021/08/06 07:59:30;;;;;;;4.05;1.90;;;22.60;99.90;;;;;;5070994;28;20052;-82
2021/08/06 08:01:56;;;;;;;4.10;1.80;;;22.60;99.90;;;;;;5071582;28;20075;-82
2021/08/06 08:04:22;;;;;;;2.97;1.63;;;22.70;99.90;;;;;;5072286;28;20178;-82
2021/08/06 08:06:47;;;;;;;5.57;1.92;;;22.90;99.90;;;;;;5070972;28;20591;-82
2021/08/06 08:09:13;;;;;;;3.53;1.90;;;23.00;99.90;;;;;;5069525;28;20044;-82
2021/08/06 08:11:39;;;;;;;5.45;1.92;;;23.30;99.90;;;;;;5068326;28;20036;-82
2021/08/06 08:14:05;;;;;;;2.65;1.73;;;23.50;99.90;;;;;;5070483;28;20120;-82
2021/08/06 08:16:31;;;;;;;4.38;1.90;;;23.80;99.90;;;;;;5072859;28;20028;-82
2021/08/06 08:18:57;;;;;;;7.68;2.60;;;23.80;99.90;;;;;;5070978;28;20550;-82
2021/08/06 08:21:23;;;;;;;6.18;2.20;;;23.90;99.90;;;;;;5070403;28;20032;-82
2021/08/06 08:23:49;;;;;;;4.18;2.10;;;23.90;99.90;;;;;;5070090;28;20044;-84
2021/08/06 08:26:15;;;;;;;5.47;2.33;;;24.10;99.90;;;;;;5069023;28;20020;-84
2021/08/06 08:28:41;;;;;;;5.03;1.98;;;24.10;99.90;;;;;;5072276;28;20082;-84
2021/08/06 08:31:07;;;;;;;3.80;1.55;;;24.50;99.90;;;;;;5070353;28;20024;-84
2021/08/06 08:33:32;;;;;;;3.42;1.88;;;24.80;99.90;;;;;;5071112;28;20029;-84
2021/08/06 08:35:58;;;;;;;5.60;2.10;;;24.80;99.90;;;;;;5070223;28;20035;-84
2021/08/06 08:38:24;;;;;;;2.15;1.50;;;25.20;99.90;;;;;;5069855;28;20021;-84
2021/08/06 08:40:50;;;;;;;5.30;2.03;;;25.30;99.90;;;;;;5071696;28;20033;-84
2021/08/06 08:43:16;;;;;;;4.47;1.80;;;25.40;99.90;;;;;;5070223;28;20040;-84
2021/08/06 08:45:41;;;;;;;3.38;1.67;;;25.60;99.90;;;;;;5053480;28;20032;-84
2021/08/06 08:48:09;;;;;;;4.13;1.90;;;25.70;99.90;;;;;;5070809;28;20051;-84
2021/08/06 08:50:36;;;;;;;5.07;1.88;;;26.00;99.90;;;;;;5068576;28;20112;-84
2021/08/06 08:53:02;;;;;;;3.42;2.00;;;26.10;99.90;;;;;;5052467;28;20392;-84
2021/08/06 08:55:28;;;;;;;4.20;2.00;;;26.20;99.90;;;;;;5070700;28;20051;-84
2021/08/06 08:57:54;;;;;;;5.35;2.00;;;26.10;99.90;;;;;;5069807;28;20029;-84
2021/08/06 09:00:19;;;;;;;3.00;1.90;;;26.10;99.90;;;;;;5069739;28;20069;-84
2021/08/06 09:02:45;;;;;;;3.05;1.90;;;26.30;99.90;;;;;;5069912;28;20044;-83
2021/08/06 09:05:12;;;;;;;4.75;2.05;;;26.60;99.90;;;;;;5069927;28;20587;-84
2021/08/06 09:07:38;;;;;;;4.55;1.90;;;26.90;99.90;;;;;;5072115;28;20526;-84
2021/08/06 09:10:16;;;;;;;5.05;1.85;;;26.80;99.90;;;;;;5068751;28;20111;-84
2021/08/06 09:12:46;;;;;;;4.80;2.08;;;26.80;99.90;;;;;;5069153;28;20107;-83
2021/08/06 09:15:11;;;;;;;3.72;1.70;;;26.70;99.90;;;;;;5069828;28;20492;-84
2021/08/06 09:17:37;;;;;;;3.92;1.90;;;26.40;99.90;;;;;;5052197;28;20039;-84
2021/08/06 09:20:07;;;;;;;3.30;1.73;;;26.10;99.90;;;;;;5069639;28;20025;-84
2021/08/06 09:22:32;;;;;;;5.55;2.00;;;26.50;99.90;;;;;;5070934;28;20477;-82
2021/08/06 09:25:17;;;;;;;2.97;1.70;;;26.90;99.90;;;;;;5068215;28;20029;-83
2021/08/06 09:27:46;;;;;;;2.97;1.80;;;27.10;99.90;;;;;;5065434;28;20048;-83
2021/08/06 09:30:24;;;;;;;3.28;1.83;;;26.90;99.90;;;;;;5068335;28;20113;-83
2021/08/06 09:32:52;;;;;;;3.22;1.77;;;26.90;99.90;;;;;;5069574;28;20028;-83
2021/08/06 09:35:21;;;;;;;3.95;2.00;;;27.20;99.90;;;;;;5069250;28;20493;-83
2021/08/06 09:37:47;;;;;;;5.63;1.90;;;27.20;99.90;;;;;;5071240;28;20107;-83
2021/08/06 09:40:16;;;;;;;5.43;2.03;;;27.40;99.90;;;;;;5069703;28;20099;-83
2021/08/06 09:43:00;;;;;;;3.40;1.90;;;27.50;99.90;;;;;;5050152;28;20066;-83
2021/08/06 09:45:38;;;;;;;2.72;1.90;;;27.60;99.90;;;;;;5069343;28;20029;-83
2021/08/06 09:48:05;;;;;;;2.25;1.83;;;27.30;99.90;;;;;;5069215;28;20122;-83
2021/08/06 09:50:35;;;;;;;5.32;2.05;;;27.30;99.90;;;;;;5069004;28;20029;-82
2021/08/06 09:53:02;;;;;;;2.90;1.75;;;26.90;99.90;;;;;;5069301;28;20024;-82
2021/08/06 09:55:32;;;;;;;3.42;1.73;;;26.60;99.90;;;;;;5070766;28;20029;-82
2021/08/06 09:58:05;;;;;;;4.05;1.75;;;26.40;99.90;;;;;;5068620;28;20115;-83
2021/08/06 10:00:30;;;;;;;4.32;2.05;;;26.60;99.90;;;;;;5068162;28;20549;-83
2021/08/06 10:02:56;;;;;;;3.80;1.70;;;26.50;99.90;;;;;;5069203;28;20029;-82
2021/08/06 10:05:25;;;;;;;6.15;1.80;;;26.40;99.90;;;;;;5068101;28;20411;-83
2021/08/06 10:07:57;;;;;;;3.35;1.73;;;26.50;99.90;;;;;;5070310;28;20428;-82
2021/08/06 10:10:29;;;;;;;4.85;2.20;;;26.80;99.90;;;;;;5069972;28;20017;-82
2021/08/06 10:12:56;;;;;;;4.90;1.70;;;27.10;99.90;;;;;;5067999;28;20051;-82
2021/08/06 10:15:23;;;;;;;3.30;2.03;;;27.40;99.90;;;;;;5051681;28;20032;-83
2021/08/06 10:17:50;;;;;;;3.63;2.03;;;27.60;99.90;;;;;;5069128;28;20025;-83
2021/08/06 10:20:18;;;;;;;5.93;1.60;;;27.80;99.90;;;;;;5068536;28;20028;-83
2021/08/06 10:22:44;;;;;;;3.55;1.80;;;28.00;99.90;;;;;;5067417;28;20037;-83
2021/08/06 10:25:12;;;;;;;4.10;1.88;;;28.50;99.90;;;;;;5071095;28;20354;-81
2021/08/06 10:27:41;;;;;;;3.58;1.75;;;28.90;99.90;;;;;;5071509;28;20070;-84
2021/08/06 10:30:09;;;;;;;6.85;2.08;;;28.80;99.90;;;;;;5072450;28;20477;-85
2021/08/06 10:32:37;;;;;;;2.83;1.60;;;28.70;99.90;;;;;;5072243;28;20035;-84
2021/08/06 10:35:05;;;;;;;5.32;2.00;;;27.80;99.90;;;;;;5073278;28;20024;-83
2021/08/06 10:37:55;;;;;;;3.47;2.20;;;27.10;99.90;;;;;;5071343;28;20047;-83
2021/08/06 10:40:33;;;;;;;4.20;1.88;;;26.70;99.90;;;;;;5061687;28;20493;-84
2021/08/06 10:43:11;;;;;;;3.22;1.98;;;26.80;99.90;;;;;;5071179;28;20040;-84
2021/08/06 10:45:55;;;;;;;2.22;1.67;;;26.60;99.90;;;;;;5071015;28;20055;-82
2021/08/06 10:48:34;;;;;;;3.58;1.80;;;26.60;99.90;;;;;;5070574;28;20044;-83
2021/08/06 10:51:15;;;;;;;3.95;1.50;;;27.10;99.90;;;;;;5066117;28;20421;-84
2021/08/06 10:54:01;;;;;;;4.40;1.60;;;27.80;99.90;;;;;;5072462;28;20089;-83
2021/08/06 10:56:33;;;;;;;4.13;1.90;;;28.50;99.90;;;;;;5038929;28;20423;-83
2021/08/06 10:59:10;;;;;;;3.47;1.60;;;28.50;99.90;;;;;;5071962;28;20483;-85
2021/08/06 11:01:38;;;;;;;3.40;1.52;;;27.60;99.90;;;;;;5073148;28;20051;-84
2021/08/06 11:04:06;;;;;;;2.53;1.60;;;28.10;99.90;;;;;;5071608;28;20052;-84
2021/08/06 11:06:48;;;;;;;4.53;1.83;;;27.90;99.90;;;;;;5070978;28;20024;-84
2021/08/06 11:09:26;;;;;;;3.40;1.80;;;27.70;99.90;;;;;;5072421;28;20033;-86
2021/08/06 11:12:06;;;;;;;6.43;1.80;;;29.60;99.90;;;;;;5071718;28;20029;-89
2021/08/06 11:14:35;;;;;;;3.85;2.00;;;33.60;99.90;;;;;;5070819;28;20480;-84
2021/08/06 11:17:23;;;;;;;2.47;1.50;;;37.00;99.90;;;;;;5071122;28;20103;-84
2021/08/06 11:19:54;;;;;;;3.45;1.60;;;38.60;99.90;;;;;;5068066;28;20025;-83
2021/08/06 11:22:27;;;;;;;2.30;1.60;;;38.50;99.90;;;;;;5073157;28;20060;-83
2021/08/06 11:25:05;;;;;;;4.32;1.67;;;39.40;99.90;;;;;;5066185;28;20029;-83
2021/08/06 11:27:45;;;;;;;3.90;1.55;;;36.40;99.90;;;;;;5065208;28;20113;-83
2021/08/06 11:30:23;;;;;;;2.05;1.30;;;34.50;99.90;;;;;;5071486;28;20024;-84
2021/08/06 11:33:04;;;;;;;3.67;1.75;;;32.80;99.90;;;;;;5071402;28;20074;-83
2021/08/06 11:35:34;;;;;;;3.28;1.65;;;38.00;99.90;;;;;;5058343;28;20536;-83
2021/08/06 11:38:17;;;;;;;2.72;1.63;;;40.90;99.90;;;;;;5070906;28;20028;-83
2021/08/06 11:40:48;;;;;;;4.18;1.75;;;41.30;99.90;;;;;;5069794;28;20112;-84
2021/08/06 11:43:19;;;;;;;3.42;1.77;;;41.70;99.90;;;;;;5070344;28;20041;-84
2021/08/06 11:45:48;;;;;;;5.63;1.85;;;40.60;99.90;;;;;;5070946;28;20036;-83
2021/08/06 11:48:14;;;;;;;4.45;1.90;;;40.80;99.90;;;;;;5071218;28;20477;-84
2021/08/06 11:50:47;;;;;;;4.03;2.03;;;41.40;99.90;;;;;;5071363;28;20500;-84
2021/08/06 11:53:19;;;;;;;3.83;1.60;;;41.90;99.90;;;;;;5070673;28;20709;-84
2021/08/06 11:55:47;;;;;;;3.72;1.70;;;40.30;99.90;;;;;;5068984;28;20029;-84
2021/08/06 11:58:13;;;;;;;4.60;2.30;;;37.60;99.90;;;;;;5070140;28;20036;-84
2021/08/06 12:00:39;;;;;;;2.97;1.80;;;38.40;99.90;;;;;;5071136;28;20554;-84
2021/08/06 12:03:16;;;;;;;4.38;2.13;;;40.30;99.90;;;;;;5069633;28;20036;-85
2021/08/06 12:05:44;;;;;;;3.53;2.00;;;40.30;99.90;;;;;;5069265;28;20025;-84
2021/08/06 12:08:19;;;;;;;4.70;1.80;;;40.10;99.90;;;;;;5071238;28;20033;-81
2021/08/06 12:10:48;;;;;;;3.65;1.70;;;41.50;99.90;;;;;;5068659;28;20029;-81
2021/08/06 12:13:17;;;;;;;1.85;1.48;;;40.90;99.90;;;;;;5070504;28;20035;-81
2021/08/06 12:15:43;;;;;;;3.70;1.95;;;40.30;99.90;;;;;;5070527;28;20032;-81
2021/08/06 12:18:19;;;;;;;3.22;1.73;;;42.30;99.90;;;;;;5069530;28;20445;-82
2021/08/06 12:20:55;;;;;;;3.45;1.75;;;39.80;99.90;;;;;;5070714;28;20020;-82
2021/08/06 12:23:22;;;;;;;2.70;1.50;;;42.10;99.90;;;;;;5055902;28;20528;-82
2021/08/06 12:26:11;;;;;;;3.03;1.55;;;40.90;99.90;;;;;;5071781;28;20107;-82
2021/08/06 12:28:43;;;;;;;3.28;1.67;;;41.00;99.90;;;;;;5054161;28;20032;-81
2021/08/06 12:31:12;;;;;;;2.72;1.75;;;40.50;99.90;;;;;;5070327;28;20028;-82
2021/08/06 12:33:39;;;;;;;3.88;1.77;;;39.50;99.90;;;;;;5068408;28;20036;-82
2021/08/06 12:36:09;;;;;;;4.20;1.90;;;38.50;99.90;;;;;;5070250;28;20115;-82
2021/08/06 12:38:35;;;;;;;7.47;1.90;;;37.80;99.90;;;;;;5070720;28;20024;-82
2021/08/06 12:41:02;;;;;;;3.00;1.60;;;39.00;99.90;;;;;;5071561;28;20449;-82
2021/08/06 12:43:27;;;;;;;6.18;1.83;;;40.60;99.90;;;;;;5069580;28;20032;-82
2021/08/06 12:46:10;;;;;;;3.50;1.60;;;40.90;99.90;;;;;;5068427;28;20396;-80
2021/08/06 12:48:35;;;;;;;5.15;1.75;;;41.40;99.90;;;;;;5068663;28;20048;-80
2021/08/06 12:51:27;;;;;;;4.65;1.70;;;40.80;99.90;;;;;;5070060;28;20107;-81
2021/08/06 12:53:53;;;;;;;3.60;1.60;;;41.80;99.90;;;;;;5067054;28;20078;-81